sensor_id;sensor_type;location;lat;lon;timestamp;P1;durP1;ratioP1;P2;durP2;ratioP2
19161;SDS011;9713;48.140;11.530;2023-08-01T00:00:51;5.07;;;2.67;;
19161;SDS011;9713;48.140;11.530;2023-08-01T00:04:34;4.85;;;2.75;;
19161;SDS011;9713;48.140;11.530;2023-08-01T00:08:17;3.22;;;2.00;;
19161;SDS011;9713;48.140;11.530;2023-08-01T00:12:00;3.88;;;2.33;;
19161;SDS011;9713;48.140;11.530;2023-08-01T00:15:44;3.47;;;2.53;;
19161;SDS011;9713;48.140;11.530;2023-08-01T00:19:46;6.60;;;2.40;;
19161;SDS011;9713;48.140;11.530;2023-08-01T00:23:29;4.05;;;2.67;;
19161;SDS011;9713;48.140;11.530;2023-08-01T00:27:12;3.78;;;2.35;;
19161;SDS011;9713;48.140;11.530;2023-08-01T00:31:02;3.50;;;2.40;;
19161;SDS011;9713;48.140;11.530;2023-08-01T00:34:46;5.32;;;2.90;;
19161;SDS011;9713;48.140;11.530;2023-08-01T00:38:28;4.13;;;2.70;;
19161;SDS011;9713;48.140;11.530;2023-08-01T00:42:11;4.03;;;2.45;;
19161;SDS011;9713;48.140;11.530;2023-08-01T00:45:55;4.80;;;2.88;;
19161;SDS011;9713;48.140;11.530;2023-08-01T00:49:42;4.55;;;2.83;;
19161;SDS011;9713;48.140;11.530;2023-08-01T00:53:25;5.10;;;2.97;;
19161;SDS011;9713;48.140;11.530;2023-08-01T00:57:08;6.40;;;2.97;;
19161;SDS011;9713;48.140;11.530;2023-08-01T01:00:52;4.82;;;2.85;;
19161;SDS011;9713;48.140;11.530;2023-08-01T01:04:37;4.18;;;2.70;;
19161;SDS011;9713;48.140;11.530;2023-08-01T01:08:21;4.63;;;3.00;;
19161;SDS011;9713;48.140;11.530;2023-08-01T01:12:04;4.45;;;2.63;;
19161;SDS011;9713;48.140;11.530;2023-08-01T01:15:48;4.93;;;2.70;;
19161;SDS011;9713;48.140;11.530;2023-08-01T01:19:32;4.13;;;2.53;;
19161;SDS011;9713;48.140;11.530;2023-08-01T01:23:16;5.07;;;2.72;;
19161;SDS011;9713;48.140;11.530;2023-08-01T01:26:59;6.78;;;2.85;;
19161;SDS011;9713;48.140;11.530;2023-08-01T01:30:44;5.07;;;2.70;;
19161;SDS011;9713;48.140;11.530;2023-08-01T01:34:27;4.07;;;2.80;;
19161;SDS011;9713;48.140;11.530;2023-08-01T01:38:10;4.88;;;2.97;;
19161;SDS011;9713;48.140;11.530;2023-08-01T01:41:54;4.63;;;2.60;;
19161;SDS011;9713;48.140;11.530;2023-08-01T01:45:37;4.60;;;2.40;;
19161;SDS011;9713;48.140;11.530;2023-08-01T01:49:20;6.20;;;2.50;;
19161;SDS011;9713;48.140;11.530;2023-08-01T01:53:02;4.88;;;2.60;;
19161;SDS011;9713;48.140;11.530;2023-08-01T01:56:46;4.50;;;2.85;;
19161;SDS011;9713;48.140;11.530;2023-08-01T02:00:30;3.60;;;2.63;;
19161;SDS011;9713;48.140;11.530;2023-08-01T02:04:12;4.63;;;2.83;;
19161;SDS011;9713;48.140;11.530;2023-08-01T02:07:55;4.72;;;2.40;;
19161;SDS011;9713;48.140;11.530;2023-08-01T02:11:38;5.40;;;2.97;;
19161;SDS011;9713;48.140;11.530;2023-08-01T02:15:20;6.05;;;2.90;;
19161;SDS011;9713;48.140;11.530;2023-08-01T02:19:05;4.57;;;2.90;;
19161;SDS011;9713;48.140;11.530;2023-08-01T02:22:47;4.78;;;2.80;;
19161;SDS011;9713;48.140;11.530;2023-08-01T02:26:30;4.28;;;2.28;;
19161;SDS011;9713;48.140;11.530;2023-08-01T02:30:13;6.15;;;2.90;;
19161;SDS011;9713;48.140;11.530;2023-08-01T02:33:56;3.85;;;2.95;;
19161;SDS011;9713;48.140;11.530;2023-08-01T02:37:40;3.97;;;2.60;;
19161;SDS011;9713;48.140;11.530;2023-08-01T02:41:22;4.50;;;3.00;;
19161;SDS011;9713;48.140;11.530;2023-08-01T02:45:05;3.70;;;3.00;;
19161;SDS011;9713;48.140;11.530;2023-08-01T02:48:48;3.67;;;2.80;;
19161;SDS011;9713;48.140;11.530;2023-08-01T02:52:31;4.63;;;3.00;;
19161;SDS011;9713;48.140;11.530;2023-08-01T02:56:15;4.60;;;2.97;;
19161;SDS011;9713;48.140;11.530;2023-08-01T02:59:58;6.97;;;3.30;;
19161;SDS011;9713;48.140;11.530;2023-08-01T03:03:41;4.93;;;3.05;;
19161;SDS011;9713;48.140;11.530;2023-08-01T03:07:24;6.13;;;2.80;;
19161;SDS011;9713;48.140;11.530;2023-08-01T03:11:07;4.38;;;2.88;;
19161;SDS011;9713;48.140;11.530;2023-08-01T03:14:51;4.05;;;2.75;;
19161;SDS011;9713;48.140;11.530;2023-08-01T03:18:37;4.07;;;3.00;;
19161;SDS011;9713;48.140;11.530;2023-08-01T03:22:20;4.28;;;2.92;;
19161;SDS011;9713;48.140;11.530;2023-08-01T03:26:02;4.40;;;2.92;;
19161;SDS011;9713;48.140;11.530;2023-08-01T03:29:45;5.28;;;2.95;;
19161;SDS011;9713;48.140;11.530;2023-08-01T03:33:29;4.70;;;2.78;;
19161;SDS011;9713;48.140;11.530;2023-08-01T03:37:12;5.93;;;3.47;;
19161;SDS011;9713;48.140;11.530;2023-08-01T03:40:55;4.75;;;2.78;;
19161;SDS011;9713;48.140;11.530;2023-08-01T03:44:37;7.00;;;3.00;;
19161;SDS011;9713;48.140;11.530;2023-08-01T03:48:20;6.50;;;3.20;;
19161;SDS011;9713;48.140;11.530;2023-08-01T03:52:05;5.43;;;2.80;;
19161;SDS011;9713;48.140;11.530;2023-08-01T03:55:48;3.85;;;2.80;;
19161;SDS011;9713;48.140;11.530;2023-08-01T03:59:30;5.28;;;3.50;;
19161;SDS011;9713;48.140;11.530;2023-08-01T04:03:13;7.00;;;3.63;;
19161;SDS011;9713;48.140;11.530;2023-08-01T04:06:56;4.00;;;3.15;;
19161;SDS011;9713;48.140;11.530;2023-08-01T04:10:40;5.60;;;3.38;;
19161;SDS011;9713;48.140;11.530;2023-08-01T04:14:23;5.30;;;3.65;;
19161;SDS011;9713;48.140;11.530;2023-08-01T04:18:06;6.70;;;4.00;;
19161;SDS011;9713;48.140;11.530;2023-08-01T04:21:48;7.03;;;3.63;;
19161;SDS011;9713;48.140;11.530;2023-08-01T04:25:31;7.97;;;3.90;;
19161;SDS011;9713;48.140;11.530;2023-08-01T04:29:15;5.15;;;3.72;;
19161;SDS011;9713;48.140;11.530;2023-08-01T04:32:59;10.15;;;4.50;;
19161;SDS011;9713;48.140;11.530;2023-08-01T04:36:41;5.93;;;4.15;;
19161;SDS011;9713;48.140;11.530;2023-08-01T04:40:24;9.95;;;4.50;;
19161;SDS011;9713;48.140;11.530;2023-08-01T04:44:07;6.03;;;3.85;;
19161;SDS011;9713;48.140;11.530;2023-08-01T04:47:51;6.05;;;3.90;;
19161;SDS011;9713;48.140;11.530;2023-08-01T04:51:34;7.95;;;4.30;;
19161;SDS011;9713;48.140;11.530;2023-08-01T04:55:17;8.52;;;3.92;;
19161;SDS011;9713;48.140;11.530;2023-08-01T04:58:59;6.97;;;3.97;;
19161;SDS011;9713;48.140;11.530;2023-08-01T05:02:43;7.53;;;4.20;;
19161;SDS011;9713;48.140;11.530;2023-08-01T05:06:27;7.53;;;4.05;;
19161;SDS011;9713;48.140;11.530;2023-08-01T05:10:10;5.60;;;3.80;;
19161;SDS011;9713;48.140;11.530;2023-08-01T05:13:56;6.05;;;3.83;;
19161;SDS011;9713;48.140;11.530;2023-08-01T05:17:38;6.87;;;3.87;;
19161;SDS011;9713;48.140;11.530;2023-08-01T05:21:21;6.07;;;3.90;;
19161;SDS011;9713;48.140;11.530;2023-08-01T05:25:06;6.03;;;3.88;;
19161;SDS011;9713;48.140;11.530;2023-08-01T05:28:49;6.22;;;3.97;;
19161;SDS011;9713;48.140;11.530;2023-08-01T05:32:32;6.20;;;3.92;;
19161;SDS011;9713;48.140;11.530;2023-08-01T05:36:14;8.27;;;4.00;;
19161;SDS011;9713;48.140;11.530;2023-08-01T05:39:57;15.65;;;5.47;;
19161;SDS011;9713;48.140;11.530;2023-08-01T05:43:41;7.95;;;3.95;;
19161;SDS011;9713;48.140;11.530;2023-08-01T05:47:24;7.38;;;4.40;;
19161;SDS011;9713;48.140;11.530;2023-08-01T05:51:07;6.95;;;4.43;;
19161;SDS011;9713;48.140;11.530;2023-08-01T05:54:50;6.75;;;4.20;;
19161;SDS011;9713;48.140;11.530;2023-08-01T05:58:33;7.90;;;4.18;;
19161;SDS011;9713;48.140;11.530;2023-08-01T06:02:17;7.03;;;4.00;;
19161;SDS011;9713;48.140;11.530;2023-08-01T06:06:00;6.22;;;3.85;;
19161;SDS011;9713;48.140;11.530;2023-08-01T06:09:43;5.97;;;3.63;;
19161;SDS011;9713;48.140;11.530;2023-08-01T06:13:26;6.57;;;3.70;;
19161;SDS011;9713;48.140;11.530;2023-08-01T06:17:09;7.77;;;3.90;;
19161;SDS011;9713;48.140;11.530;2023-08-01T06:20:53;7.47;;;3.50;;
19161;SDS011;9713;48.140;11.530;2023-08-01T06:24:36;4.80;;;3.38;;
19161;SDS011;9713;48.140;11.530;2023-08-01T06:28:19;5.38;;;3.33;;
19161;SDS011;9713;48.140;11.530;2023-08-01T06:32:01;4.70;;;3.47;;
19161;SDS011;9713;48.140;11.530;2023-08-01T06:35:44;5.88;;;3.55;;
19161;SDS011;9713;48.140;11.530;2023-08-01T06:39:29;6.07;;;3.33;;
19161;SDS011;9713;48.140;11.530;2023-08-01T06:43:12;4.87;;;3.20;;
19161;SDS011;9713;48.140;11.530;2023-08-01T06:46:55;5.72;;;3.53;;
19161;SDS011;9713;48.140;11.530;2023-08-01T06:50:40;6.07;;;3.40;;
19161;SDS011;9713;48.140;11.530;2023-08-01T06:54:23;5.50;;;3.47;;
19161;SDS011;9713;48.140;11.530;2023-08-01T06:58:07;6.20;;;2.97;;
19161;SDS011;9713;48.140;11.530;2023-08-01T07:01:50;4.47;;;3.40;;
19161;SDS011;9713;48.140;11.530;2023-08-01T07:05:34;5.68;;;3.13;;
19161;SDS011;9713;48.140;11.530;2023-08-01T07:09:17;5.18;;;3.10;;
19161;SDS011;9713;48.140;11.530;2023-08-01T07:12:59;5.32;;;2.85;;
19161;SDS011;9713;48.140;11.530;2023-08-01T07:16:46;5.22;;;2.85;;
19161;SDS011;9713;48.140;11.530;2023-08-01T07:20:29;3.97;;;2.75;;
19161;SDS011;9713;48.140;11.530;2023-08-01T07:24:11;4.97;;;2.90;;
19161;SDS011;9713;48.140;11.530;2023-08-01T07:27:55;5.22;;;3.17;;
19161;SDS011;9713;48.140;11.530;2023-08-01T07:31:39;5.90;;;3.40;;
19161;SDS011;9713;48.140;11.530;2023-08-01T07:35:23;5.13;;;3.13;;
19161;SDS011;9713;48.140;11.530;2023-08-01T07:39:06;6.63;;;2.90;;
19161;SDS011;9713;48.140;11.530;2023-08-01T07:42:50;6.22;;;3.13;;
19161;SDS011;9713;48.140;11.530;2023-08-01T07:46:32;4.65;;;2.90;;
19161;SDS011;9713;48.140;11.530;2023-08-01T07:50:15;5.32;;;2.95;;
19161;SDS011;9713;48.140;11.530;2023-08-01T07:53:59;6.22;;;3.20;;
19161;SDS011;9713;48.140;11.530;2023-08-01T07:57:42;6.53;;;2.92;;
19161;SDS011;9713;48.140;11.530;2023-08-01T08:01:25;5.35;;;2.90;;
19161;SDS011;9713;48.140;11.530;2023-08-01T08:05:08;4.13;;;2.70;;
19161;SDS011;9713;48.140;11.530;2023-08-01T08:08:51;5.00;;;2.90;;
19161;SDS011;9713;48.140;11.530;2023-08-01T08:12:35;4.25;;;3.00;;
19161;SDS011;9713;48.140;11.530;2023-08-01T08:16:18;3.95;;;2.72;;
19161;SDS011;9713;48.140;11.530;2023-08-01T08:20:01;4.35;;;2.90;;
19161;SDS011;9713;48.140;11.530;2023-08-01T08:23:44;4.80;;;2.80;;
19161;SDS011;9713;48.140;11.530;2023-08-01T08:27:27;6.00;;;3.30;;
19161;SDS011;9713;48.140;11.530;2023-08-01T08:31:11;5.03;;;3.00;;
19161;SDS011;9713;48.140;11.530;2023-08-01T08:34:54;4.78;;;3.00;;
19161;SDS011;9713;48.140;11.530;2023-08-01T08:38:37;6.20;;;3.97;;
19161;SDS011;9713;48.140;11.530;2023-08-01T08:42:20;4.47;;;3.10;;
19161;SDS011;9713;48.140;11.530;2023-08-01T08:46:03;6.82;;;3.30;;
19161;SDS011;9713;48.140;11.530;2023-08-01T08:49:47;5.00;;;3.03;;
19161;SDS011;9713;48.140;11.530;2023-08-01T08:53:31;7.40;;;3.10;;
19161;SDS011;9713;48.140;11.530;2023-08-01T08:57:15;5.50;;;3.28;;
19161;SDS011;9713;48.140;11.530;2023-08-01T09:00:58;5.38;;;3.10;;
19161;SDS011;9713;48.140;11.530;2023-08-01T09:04:43;6.30;;;3.47;;
19161;SDS011;9713;48.140;11.530;2023-08-01T09:08:28;5.78;;;3.13;;
19161;SDS011;9713;48.140;11.530;2023-08-01T09:12:12;6.45;;;3.60;;
19161;SDS011;9713;48.140;11.530;2023-08-01T09:15:56;5.18;;;3.53;;
19161;SDS011;9713;48.140;11.530;2023-08-01T09:19:39;5.78;;;3.63;;
19161;SDS011;9713;48.140;11.530;2023-08-01T09:23:24;7.38;;;3.53;;
19161;SDS011;9713;48.140;11.530;2023-08-01T09:27:08;8.27;;;4.10;;
19161;SDS011;9713;48.140;11.530;2023-08-01T09:30:51;8.05;;;3.83;;
19161;SDS011;9713;48.140;11.530;2023-08-01T09:34:35;5.30;;;3.33;;
19161;SDS011;9713;48.140;11.530;2023-08-01T09:38:18;6.50;;;4.15;;
19161;SDS011;9713;48.140;11.530;2023-08-01T09:42:01;6.88;;;4.30;;
19161;SDS011;9713;48.140;11.530;2023-08-01T09:45:53;7.25;;;3.80;;
19161;SDS011;9713;48.140;11.530;2023-08-01T09:49:46;5.32;;;3.55;;
19161;SDS011;9713;48.140;11.530;2023-08-01T09:53:30;5.32;;;3.45;;
19161;SDS011;9713;48.140;11.530;2023-08-01T09:57:12;6.68;;;3.72;;
19161;SDS011;9713;48.140;11.530;2023-08-01T10:00:57;6.03;;;3.28;;
19161;SDS011;9713;48.140;11.530;2023-08-01T10:04:40;6.93;;;3.00;;
19161;SDS011;9713;48.140;11.530;2023-08-01T10:08:24;5.28;;;3.17;;
19161;SDS011;9713;48.140;11.530;2023-08-01T10:12:07;5.45;;;3.70;;
19161;SDS011;9713;48.140;11.530;2023-08-01T10:15:50;6.60;;;3.40;;
19161;SDS011;9713;48.140;11.530;2023-08-01T10:19:35;5.78;;;3.03;;
19161;SDS011;9713;48.140;11.530;2023-08-01T10:23:18;4.83;;;3.07;;
19161;SDS011;9713;48.140;11.530;2023-08-01T10:27:10;7.00;;;3.88;;
19161;SDS011;9713;48.140;11.530;2023-08-01T10:30:54;5.38;;;3.50;;
19161;SDS011;9713;48.140;11.530;2023-08-01T10:34:41;5.10;;;2.95;;
19161;SDS011;9713;48.140;11.530;2023-08-01T10:38:33;5.83;;;3.23;;
19161;SDS011;9713;48.140;11.530;2023-08-01T10:42:36;6.05;;;2.90;;
19161;SDS011;9713;48.140;11.530;2023-08-01T10:46:20;7.53;;;3.30;;
19161;SDS011;9713;48.140;11.530;2023-08-01T10:50:12;4.45;;;3.05;;
19161;SDS011;9713;48.140;11.530;2023-08-01T10:53:57;5.40;;;3.45;;
19161;SDS011;9713;48.140;11.530;2023-08-01T10:57:46;5.30;;;3.10;;
19161;SDS011;9713;48.140;11.530;2023-08-01T11:01:30;4.88;;;3.10;;
19161;SDS011;9713;48.140;11.530;2023-08-01T11:05:14;5.23;;;3.23;;
19161;SDS011;9713;48.140;11.530;2023-08-01T11:08:57;6.82;;;2.92;;
19161;SDS011;9713;48.140;11.530;2023-08-01T11:12:40;4.05;;;2.72;;
19161;SDS011;9713;48.140;11.530;2023-08-01T11:16:24;3.15;;;2.20;;
19161;SDS011;9713;48.140;11.530;2023-08-01T11:20:09;2.83;;;2.15;;
19161;SDS011;9713;48.140;11.530;2023-08-01T11:23:54;4.47;;;1.95;;
19161;SDS011;9713;48.140;11.530;2023-08-01T11:27:36;4.63;;;2.15;;
19161;SDS011;9713;48.140;11.530;2023-08-01T11:31:20;5.40;;;2.45;;
19161;SDS011;9713;48.140;11.530;2023-08-01T11:35:03;3.47;;;2.20;;
19161;SDS011;9713;48.140;11.530;2023-08-01T11:38:46;4.10;;;2.63;;
19161;SDS011;9713;48.140;11.530;2023-08-01T11:42:33;3.63;;;2.17;;
19161;SDS011;9713;48.140;11.530;2023-08-01T11:46:16;4.10;;;2.50;;
19161;SDS011;9713;48.140;11.530;2023-08-01T11:49:59;5.47;;;2.60;;
19161;SDS011;9713;48.140;11.530;2023-08-01T11:53:42;4.07;;;2.55;;
19161;SDS011;9713;48.140;11.530;2023-08-01T11:57:25;3.60;;;2.30;;
19161;SDS011;9713;48.140;11.530;2023-08-01T12:01:09;4.13;;;2.30;;
19161;SDS011;9713;48.140;11.530;2023-08-01T12:04:53;4.07;;;2.60;;
19161;SDS011;9713;48.140;11.530;2023-08-01T12:08:36;4.63;;;2.75;;
19161;SDS011;9713;48.140;11.530;2023-08-01T12:12:20;5.85;;;2.78;;
19161;SDS011;9713;48.140;11.530;2023-08-01T12:16:03;4.32;;;2.70;;
19161;SDS011;9713;48.140;11.530;2023-08-01T12:19:47;4.47;;;2.17;;
19161;SDS011;9713;48.140;11.530;2023-08-01T12:23:30;4.53;;;2.22;;
19161;SDS011;9713;48.140;11.530;2023-08-01T12:27:13;4.70;;;2.60;;
19161;SDS011;9713;48.140;11.530;2023-08-01T12:30:56;4.90;;;2.55;;
19161;SDS011;9713;48.140;11.530;2023-08-01T12:34:40;3.67;;;2.17;;
19161;SDS011;9713;48.140;11.530;2023-08-01T12:38:24;2.83;;;2.15;;
19161;SDS011;9713;48.140;11.530;2023-08-01T12:42:07;4.15;;;2.30;;
19161;SDS011;9713;48.140;11.530;2023-08-01T12:45:50;4.40;;;2.50;;
19161;SDS011;9713;48.140;11.530;2023-08-01T12:49:36;3.20;;;2.00;;
19161;SDS011;9713;48.140;11.530;2023-08-01T12:53:18;3.40;;;1.75;;
19161;SDS011;9713;48.140;11.530;2023-08-01T12:57:03;2.90;;;2.10;;
19161;SDS011;9713;48.140;11.530;2023-08-01T13:00:46;3.78;;;2.22;;
19161;SDS011;9713;48.140;11.530;2023-08-01T13:04:29;4.60;;;2.42;;
19161;SDS011;9713;48.140;11.530;2023-08-01T13:08:12;2.85;;;1.75;;
19161;SDS011;9713;48.140;11.530;2023-08-01T13:11:54;3.65;;;2.15;;
19161;SDS011;9713;48.140;11.530;2023-08-01T13:15:39;3.10;;;2.03;;
19161;SDS011;9713;48.140;11.530;2023-08-01T13:19:22;3.53;;;1.90;;
19161;SDS011;9713;48.140;11.530;2023-08-01T13:23:04;2.80;;;2.00;;
19161;SDS011;9713;48.140;11.530;2023-08-01T13:26:47;3.05;;;2.15;;
19161;SDS011;9713;48.140;11.530;2023-08-01T13:30:30;3.83;;;2.20;;
19161;SDS011;9713;48.140;11.530;2023-08-01T13:34:14;2.72;;;2.05;;
19161;SDS011;9713;48.140;11.530;2023-08-01T13:37:58;3.05;;;2.00;;
19161;SDS011;9713;48.140;11.530;2023-08-01T13:41:41;3.55;;;2.10;;
19161;SDS011;9713;48.140;11.530;2023-08-01T13:45:24;3.50;;;2.25;;
19161;SDS011;9713;48.140;11.530;2023-08-01T13:49:06;3.15;;;2.30;;
19161;SDS011;9713;48.140;11.530;2023-08-01T13:52:50;3.15;;;2.10;;
19161;SDS011;9713;48.140;11.530;2023-08-01T13:56:33;3.58;;;2.10;;
19161;SDS011;9713;48.140;11.530;2023-08-01T14:00:19;2.28;;;1.90;;
19161;SDS011;9713;48.140;11.530;2023-08-01T14:04:02;3.67;;;2.10;;
19161;SDS011;9713;48.140;11.530;2023-08-01T14:07:45;3.00;;;1.98;;
19161;SDS011;9713;48.140;11.530;2023-08-01T14:11:29;3.35;;;1.90;;
19161;SDS011;9713;48.140;11.530;2023-08-01T14:15:12;2.72;;;2.05;;
19161;SDS011;9713;48.140;11.530;2023-08-01T14:18:55;4.45;;;3.08;;
19161;SDS011;9713;48.140;11.530;2023-08-01T14:22:38;2.67;;;1.95;;
19161;SDS011;9713;48.140;11.530;2023-08-01T14:26:21;2.83;;;2.10;;
19161;SDS011;9713;48.140;11.530;2023-08-01T14:30:06;3.63;;;2.00;;
19161;SDS011;9713;48.140;11.530;2023-08-01T14:33:49;2.55;;;2.05;;
19161;SDS011;9713;48.140;11.530;2023-08-01T14:37:32;3.20;;;2.13;;
19161;SDS011;9713;48.140;11.530;2023-08-01T14:41:15;4.32;;;2.05;;
19161;SDS011;9713;48.140;11.530;2023-08-01T14:45:19;2.90;;;1.60;;
19161;SDS011;9713;48.140;11.530;2023-08-01T14:49:02;5.00;;;1.85;;
19161;SDS011;9713;48.140;11.530;2023-08-01T14:52:45;3.35;;;1.35;;
19161;SDS011;9713;48.140;11.530;2023-08-01T14:56:28;2.25;;;1.42;;
19161;SDS011;9713;48.140;11.530;2023-08-01T15:00:11;2.78;;;1.50;;
19161;SDS011;9713;48.140;11.530;2023-08-01T15:03:56;1.50;;;1.30;;
19161;SDS011;9713;48.140;11.530;2023-08-01T15:07:39;1.77;;;1.27;;
19161;SDS011;9713;48.140;11.530;2023-08-01T15:11:23;5.72;;;1.13;;
19161;SDS011;9713;48.140;11.530;2023-08-01T15:15:06;3.10;;;1.20;;
19161;SDS011;9713;48.140;11.530;2023-08-01T15:18:50;3.05;;;1.30;;
19161;SDS011;9713;48.140;11.530;2023-08-01T15:22:34;2.17;;;1.40;;
19161;SDS011;9713;48.140;11.530;2023-08-01T15:26:17;3.45;;;1.30;;
19161;SDS011;9713;48.140;11.530;2023-08-01T15:30:00;1.80;;;1.15;;
19161;SDS011;9713;48.140;11.530;2023-08-01T15:33:43;3.65;;;1.70;;
19161;SDS011;9713;48.140;11.530;2023-08-01T15:37:26;3.67;;;1.77;;
19161;SDS011;9713;48.140;11.530;2023-08-01T15:41:11;4.10;;;1.70;;
19161;SDS011;9713;48.140;11.530;2023-08-01T15:44:54;2.07;;;1.40;;
19161;SDS011;9713;48.140;11.530;2023-08-01T15:48:37;1.70;;;0.90;;
19161;SDS011;9713;48.140;11.530;2023-08-01T15:52:20;1.90;;;0.80;;
19161;SDS011;9713;48.140;11.530;2023-08-01T15:56:03;2.45;;;0.90;;
19161;SDS011;9713;48.140;11.530;2023-08-01T15:59:48;1.10;;;0.82;;
19161;SDS011;9713;48.140;11.530;2023-08-01T16:03:31;1.33;;;0.70;;
19161;SDS011;9713;48.140;11.530;2023-08-01T16:07:14;1.35;;;0.98;;
19161;SDS011;9713;48.140;11.530;2023-08-01T16:10:57;0.68;;;0.60;;
19161;SDS011;9713;48.140;11.530;2023-08-01T16:14:40;1.17;;;0.90;;
19161;SDS011;9713;48.140;11.530;2023-08-01T16:18:24;1.52;;;1.20;;
19161;SDS011;9713;48.140;11.530;2023-08-01T16:22:06;1.42;;;1.00;;
19161;SDS011;9713;48.140;11.530;2023-08-01T16:25:49;1.63;;;0.80;;
19161;SDS011;9713;48.140;11.530;2023-08-01T16:29:32;0.88;;;0.85;;
19161;SDS011;9713;48.140;11.530;2023-08-01T16:33:15;1.13;;;0.60;;
19161;SDS011;9713;48.140;11.530;2023-08-01T16:37:00;1.60;;;0.90;;
19161;SDS011;9713;48.140;11.530;2023-08-01T16:40:43;1.35;;;0.80;;
19161;SDS011;9713;48.140;11.530;2023-08-01T16:44:25;1.38;;;0.80;;
19161;SDS011;9713;48.140;11.530;2023-08-01T16:48:08;0.80;;;0.60;;
19161;SDS011;9713;48.140;11.530;2023-08-01T16:51:51;1.58;;;1.10;;
19161;SDS011;9713;48.140;11.530;2023-08-01T16:55:35;1.45;;;0.90;;
19161;SDS011;9713;48.140;11.530;2023-08-01T16:59:18;1.10;;;0.80;;
19161;SDS011;9713;48.140;11.530;2023-08-01T17:03:01;1.52;;;1.10;;
19161;SDS011;9713;48.140;11.530;2023-08-01T17:06:44;1.35;;;0.90;;
19161;SDS011;9713;48.140;11.530;2023-08-01T17:10:28;1.27;;;1.00;;
19161;SDS011;9713;48.140;11.530;2023-08-01T17:14:13;1.00;;;0.80;;
19161;SDS011;9713;48.140;11.530;2023-08-01T17:17:56;1.30;;;0.82;;
19161;SDS011;9713;48.140;11.530;2023-08-01T17:21:39;1.15;;;0.77;;
19161;SDS011;9713;48.140;11.530;2023-08-01T17:25:22;1.30;;;0.68;;
19161;SDS011;9713;48.140;11.530;2023-08-01T17:29:05;1.17;;;1.02;;
19161;SDS011;9713;48.140;11.530;2023-08-01T17:32:49;1.40;;;0.93;;
19161;SDS011;9713;48.140;11.530;2023-08-01T17:36:32;1.77;;;1.33;;
19161;SDS011;9713;48.140;11.530;2023-08-01T17:40:15;1.25;;;0.90;;
19161;SDS011;9713;48.140;11.530;2023-08-01T17:43:59;1.40;;;1.15;;
19161;SDS011;9713;48.140;11.530;2023-08-01T17:47:42;2.17;;;1.25;;
19161;SDS011;9713;48.140;11.530;2023-08-01T17:51:27;0.90;;;0.80;;
19161;SDS011;9713;48.140;11.530;2023-08-01T17:55:10;0.98;;;0.80;;
19161;SDS011;9713;48.140;11.530;2023-08-01T17:58:53;1.27;;;0.82;;
19161;SDS011;9713;48.140;11.530;2023-08-01T18:02:35;0.95;;;0.75;;
19161;SDS011;9713;48.140;11.530;2023-08-01T18:06:18;11.27;;;4.43;;
19161;SDS011;9713;48.140;11.530;2023-08-01T18:10:03;2.90;;;1.20;;
19161;SDS011;9713;48.140;11.530;2023-08-01T18:13:46;3.08;;;1.20;;
19161;SDS011;9713;48.140;11.530;2023-08-01T18:17:30;5.03;;;2.47;;
19161;SDS011;9713;48.140;11.530;2023-08-01T18:21:13;2.38;;;1.23;;
19161;SDS011;9713;48.140;11.530;2023-08-01T18:24:56;1.60;;;0.98;;
19161;SDS011;9713;48.140;11.530;2023-08-01T18:28:42;1.75;;;1.00;;
19161;SDS011;9713;48.140;11.530;2023-08-01T18:32:24;1.00;;;0.80;;
19161;SDS011;9713;48.140;11.530;2023-08-01T18:36:10;1.92;;;1.05;;
19161;SDS011;9713;48.140;11.530;2023-08-01T18:39:53;1.40;;;0.90;;
19161;SDS011;9713;48.140;11.530;2023-08-01T18:43:37;2.40;;;1.20;;
19161;SDS011;9713;48.140;11.530;2023-08-01T18:47:21;2.35;;;1.13;;
19161;SDS011;9713;48.140;11.530;2023-08-01T18:51:10;2.50;;;1.50;;
19161;SDS011;9713;48.140;11.530;2023-08-01T18:54:53;1.02;;;0.82;;
19161;SDS011;9713;48.140;11.530;2023-08-01T18:58:36;2.15;;;0.95;;
19161;SDS011;9713;48.140;11.530;2023-08-01T19:02:19;1.90;;;1.00;;
19161;SDS011;9713;48.140;11.530;2023-08-01T19:06:04;4.13;;;1.60;;
19161;SDS011;9713;48.140;11.530;2023-08-01T19:09:47;5.60;;;1.50;;
19161;SDS011;9713;48.140;11.530;2023-08-01T19:13:30;2.03;;;1.10;;
19161;SDS011;9713;48.140;11.530;2023-08-01T19:17:13;1.77;;;1.30;;
19161;SDS011;9713;48.140;11.530;2023-08-01T19:20:57;2.03;;;0.97;;
19161;SDS011;9713;48.140;11.530;2023-08-01T19:24:40;2.78;;;1.10;;
19161;SDS011;9713;48.140;11.530;2023-08-01T19:28:23;2.80;;;1.37;;
19161;SDS011;9713;48.140;11.530;2023-08-01T19:32:06;1.87;;;1.10;;
19161;SDS011;9713;48.140;11.530;2023-08-01T19:35:49;2.50;;;1.10;;
19161;SDS011;9713;48.140;11.530;2023-08-01T19:39:33;1.08;;;0.95;;
19161;SDS011;9713;48.140;11.530;2023-08-01T19:43:16;1.60;;;1.07;;
19161;SDS011;9713;48.140;11.530;2023-08-01T19:46:59;1.50;;;1.20;;
19161;SDS011;9713;48.140;11.530;2023-08-01T19:50:41;1.27;;;1.10;;
19161;SDS011;9713;48.140;11.530;2023-08-01T19:54:24;1.70;;;1.20;;
19161;SDS011;9713;48.140;11.530;2023-08-01T19:58:08;1.70;;;1.13;;
19161;SDS011;9713;48.140;11.530;2023-08-01T20:01:51;2.00;;;1.30;;
19161;SDS011;9713;48.140;11.530;2023-08-01T20:05:34;1.60;;;0.90;;
19161;SDS011;9713;48.140;11.530;2023-08-01T20:09:17;2.30;;;1.30;;
19161;SDS011;9713;48.140;11.530;2023-08-01T20:13:00;2.17;;;1.30;;
19161;SDS011;9713;48.140;11.530;2023-08-01T20:16:44;1.17;;;1.00;;
19161;SDS011;9713;48.140;11.530;2023-08-01T20:20:26;3.40;;;1.60;;
19161;SDS011;9713;48.140;11.530;2023-08-01T20:24:09;2.03;;;1.50;;
19161;SDS011;9713;48.140;11.530;2023-08-01T20:27:52;1.60;;;1.20;;
19161;SDS011;9713;48.140;11.530;2023-08-01T20:31:35;1.20;;;1.03;;
19161;SDS011;9713;48.140;11.530;2023-08-01T20:35:20;1.50;;;1.27;;
19161;SDS011;9713;48.140;11.530;2023-08-01T20:39:03;1.50;;;1.20;;
19161;SDS011;9713;48.140;11.530;2023-08-01T20:42:45;1.77;;;1.30;;
19161;SDS011;9713;48.140;11.530;2023-08-01T20:46:29;1.30;;;1.20;;
19161;SDS011;9713;48.140;11.530;2023-08-01T20:50:12;1.23;;;1.10;;
19161;SDS011;9713;48.140;11.530;2023-08-01T20:53:57;1.70;;;1.20;;
19161;SDS011;9713;48.140;11.530;2023-08-01T20:57:40;2.53;;;1.50;;
19161;SDS011;9713;48.140;11.530;2023-08-01T21:01:23;2.93;;;1.17;;
19161;SDS011;9713;48.140;11.530;2023-08-01T21:05:06;1.60;;;1.30;;
19161;SDS011;9713;48.140;11.530;2023-08-01T21:08:49;1.90;;;1.10;;
19161;SDS011;9713;48.140;11.530;2023-08-01T21:12:46;1.73;;;1.30;;
19161;SDS011;9713;48.140;11.530;2023-08-01T21:16:29;3.20;;;1.30;;
19161;SDS011;9713;48.140;11.530;2023-08-01T21:20:12;2.27;;;1.23;;
19161;SDS011;9713;48.140;11.530;2023-08-01T21:23:58;1.70;;;1.30;;
19161;SDS011;9713;48.140;11.530;2023-08-01T21:27:40;1.93;;;1.50;;
19161;SDS011;9713;48.140;11.530;2023-08-01T21:31:25;1.93;;;1.37;;
19161;SDS011;9713;48.140;11.530;2023-08-01T21:35:08;2.60;;;1.53;;
19161;SDS011;9713;48.140;11.530;2023-08-01T21:38:50;2.40;;;1.40;;
19161;SDS011;9713;48.140;11.530;2023-08-01T21:42:33;1.73;;;1.40;;
19161;SDS011;9713;48.140;11.530;2023-08-01T21:46:16;2.37;;;1.53;;
19161;SDS011;9713;48.140;11.530;2023-08-01T21:50:00;1.93;;;1.43;;
19161;SDS011;9713;48.140;11.530;2023-08-01T21:53:43;2.03;;;1.23;;
19161;SDS011;9713;48.140;11.530;2023-08-01T21:57:26;2.93;;;1.40;;
19161;SDS011;9713;48.140;11.530;2023-08-01T22:01:11;1.53;;;1.20;;
19161;SDS011;9713;48.140;11.530;2023-08-01T22:04:54;2.13;;;1.50;;
19161;SDS011;9713;48.140;11.530;2023-08-01T22:08:38;2.13;;;1.37;;
19161;SDS011;9713;48.140;11.530;2023-08-01T22:12:21;1.93;;;1.60;;
19161;SDS011;9713;48.140;11.530;2023-08-01T22:16:03;1.43;;;1.20;;
19161;SDS011;9713;48.140;11.530;2023-08-01T22:19:46;3.23;;;1.40;;
19161;SDS011;9713;48.140;11.530;2023-08-01T22:23:29;2.10;;;1.40;;
19161;SDS011;9713;48.140;11.530;2023-08-01T22:27:13;1.83;;;1.33;;